Time;durP1;ratioP1;P1;durP2;ratioP2;P2;SDS_P1;SDS_P2;PMS_P1;PMS_P2;Temp;Humidity;BMP_temperature;BMP_pressure;BME280_temperature;BME280_humidity;BME280_pressure;Samples;Min_cycle;Max_cycle;Signal;HPM_P1;HPM_P2
2022/05/03 00:01:33;;;;;;;10.18;9.18;;;7.50;79.40;;;;;;5113043;28;20042;-80
2022/05/03 00:04:43;;;;;;;11.27;10.07;;;7.50;79.70;;;;;;5099897;28;20048;-81
2022/05/03 00:07:17;;;;;;;11.80;10.45;;;7.50;79.70;;;;;;5112956;28;20202;-78
2022/05/03 00:10:11;;;;;;;11.77;10.57;;;7.50;79.80;;;;;;5095658;28;20048;-78
2022/05/03 00:12:47;;;;;;;13.05;11.75;;;7.50;79.60;;;;;;5095919;28;20032;-80
2022/05/03 00:15:18;;;;;;;13.05;11.73;;;7.50;79.50;;;;;;5095796;28;20027;-80
2022/05/03 00:17:45;;;;;;;15.60;12.32;;;7.50;80.30;;;;;;5095979;28;20491;-79
2022/05/03 00:20:11;;;;;;;14.10;12.73;;;7.40;80.20;;;;;;5112869;28;20048;-83
2022/05/03 00:22:38;;;;;;;13.38;11.98;;;7.30;80.70;;;;;;5112979;28;20369;-82
2022/05/03 00:25:04;;;;;;;13.85;12.40;;;7.30;80.80;;;;;;5078821;28;20043;-79
2022/05/03 00:27:30;;;;;;;16.60;14.77;;;7.30;81.00;;;;;;5112549;28;20097;-81
2022/05/03 00:29:58;;;;;;;15.95;13.98;;;7.20;80.60;;;;;;5095470;28;20039;-80
2022/05/03 00:32:28;;;;;;;18.30;13.00;;;7.20;81.30;;;;;;5112779;28;20054;-78
2022/05/03 00:34:56;;;;;;;14.95;13.45;;;7.20;80.90;;;;;;5112462;28;20633;-83
2022/05/03 00:37:22;;;;;;;14.45;12.95;;;7.10;82.30;;;;;;5112507;28;20491;-79
2022/05/03 00:39:48;;;;;;;14.38;12.80;;;7.20;82.20;;;;;;5095501;28;20123;-81
2022/05/03 00:42:23;;;;;;;15.43;13.82;;;7.10;81.50;;;;;;5095405;28;20134;-82
2022/05/03 00:45:08;;;;;;;14.55;13.05;;;7.10;81.50;;;;;;5112646;28;20036;-79
2022/05/03 00:48:00;;;;;;;16.45;13.48;;;7.10;82.10;;;;;;5095391;28;20059;-81
2022/05/03 00:50:36;;;;;;;17.55;12.95;;;7.10;82.70;;;;;;5112188;28;20043;-81
2022/05/03 00:53:17;;;;;;;14.82;12.98;;;7.00;82.50;;;;;;5112615;28;20455;-81
2022/05/03 00:55:54;;;;;;;15.90;13.32;;;6.90;84.30;;;;;;5112219;28;20039;-82
2022/05/03 00:58:35;;;;;;;14.30;12.85;;;6.90;83.30;;;;;;5112394;28;20395;-78
2022/05/03 01:01:16;;;;;;;16.25;13.82;;;6.80;83.80;;;;;;5112137;28;20079;-81
2022/05/03 01:04:10;;;;;;;15.32;13.30;;;6.80;85.40;;;;;;5112137;28;20040;-77
2022/05/03 01:06:44;;;;;;;16.30;13.38;;;6.80;83.80;;;;;;5112347;28;20394;-79
2022/05/03 01:09:10;;;;;;;15.85;13.95;;;6.80;83.60;;;;;;5112081;28;20043;-77
2022/05/03 01:12:05;;;;;;;15.55;13.95;;;6.80;83.80;;;;;;5111847;28;20040;-82
2022/05/03 01:15:00;;;;;;;15.50;13.50;;;6.70;84.70;;;;;;5111976;28;20035;-79
2022/05/03 01:17:32;;;;;;;15.20;13.45;;;6.80;83.90;;;;;;5094923;28;20122;-82
2022/05/03 01:20:05;;;;;;;13.88;12.45;;;6.70;84.80;;;;;;5112291;28;20035;-80
2022/05/03 01:22:43;;;;;;;15.13;13.52;;;6.60;83.70;;;;;;5116355;28;20582;-81
2022/05/03 01:25:36;;;;;;;19.35;14.15;;;6.70;83.70;;;;;;5116112;28;20043;-80
2022/05/03 01:28:05;;;;;;;15.52;13.90;;;6.80;83.80;;;;;;5098972;28;20071;-82
2022/05/03 01:30:31;;;;;;;17.45;14.07;;;6.80;84.10;;;;;;5115867;28;20044;-81
2022/05/03 01:33:08;;;;;;;16.50;13.77;;;6.70;84.00;;;;;;5099172;27;20042;-79
2022/05/03 01:35:39;;;;;;;16.25;14.10;;;6.80;84.50;;;;;;5119400;27;20042;-79
2022/05/03 01:38:28;;;;;;;13.05;11.07;;;6.90;84.00;;;;;;5119607;27;20039;-82
2022/05/03 01:41:08;;;;;;;15.40;13.80;;;6.90;83.80;;;;;;5119357;27;20043;-79
2022/05/03 01:43:52;;;;;;;16.30;14.10;;;7.00;84.00;;;;;;5102495;27;20043;-83
2022/05/03 01:46:27;;;;;;;14.90;12.80;;;7.00;84.20;;;;;;5119178;27;20510;-80
2022/05/03 01:52:19;;;;;;;17.40;14.25;;;7.00;83.90;;;;;;5119007;27;20398;-79
2022/05/03 01:54:53;;;;;;;17.40;14.30;;;7.00;84.10;;;;;;5119123;27;20039;-83
2022/05/03 01:57:53;;;;;;;14.77;12.25;;;7.00;84.00;;;;;;5101845;27;20084;-83
2022/05/03 02:00:22;;;;;;;16.70;13.98;;;7.10;84.00;;;;;;5119074;27;20086;-82
2022/05/03 02:03:28;;;;;;;15.60;14.00;;;7.00;83.90;;;;;;5118801;27;20035;-81
2022/05/03 02:06:08;;;;;;;16.42;13.75;;;7.10;84.00;;;;;;5101277;27;20047;-81
2022/05/03 02:09:04;;;;;;;18.92;15.20;;;7.10;83.90;;;;;;5101683;27;20050;-78
2022/05/03 02:11:33;;;;;;;16.95;15.15;;;7.20;84.00;;;;;;5118554;27;20089;-79
2022/05/03 02:17:13;;;;;;;17.55;15.20;;;7.30;84.00;;;;;;5118542;27;20039;-80
2022/05/03 02:20:30;;;;;;;21.23;16.10;;;7.40;84.20;;;;;;5118682;27;20395;-81
2022/05/03 02:23:37;;;;;;;17.20;15.20;;;7.40;84.10;;;;;;5073688;27;20047;-80
2022/05/03 02:26:35;;;;;;;21.55;16.58;;;7.50;84.20;;;;;;5118410;27;20043;-82
2022/05/03 02:29:11;;;;;;;23.02;17.23;;;7.50;84.10;;;;;;5101003;27;20398;-81
2022/05/03 02:31:51;;;;;;;20.33;16.52;;;7.60;84.20;;;;;;5117705;27;20251;-82
2022/05/03 02:34:42;;;;;;;21.00;17.50;;;7.60;84.10;;;;;;5114866;28;20047;-82
2022/05/03 02:37:22;;;;;;;25.90;19.05;;;7.80;84.20;;;;;;5097176;28;20108;-81
2022/05/03 02:39:59;;;;;;;25.95;18.92;;;7.80;84.80;;;;;;5114745;28;20039;-80
2022/05/03 02:42:25;;;;;;;23.52;18.45;;;7.90;84.40;;;;;;5115119;28;20437;-80
2022/05/03 02:44:55;;;;;;;24.38;19.02;;;8.00;84.50;;;;;;5114732;28;20122;-79
2022/05/03 02:47:30;;;;;;;25.23;20.50;;;8.10;84.60;;;;;;5114615;28;20120;-79
2022/05/03 02:50:08;;;;;;;25.23;19.30;;;8.10;84.50;;;;;;5114653;28;20093;-81
2022/05/03 02:52:40;;;;;;;22.58;17.25;;;8.10;84.80;;;;;;5097557;28;20556;-81
2022/05/03 02:55:27;;;;;;;22.48;18.38;;;8.10;84.80;;;;;;5097456;28;20084;-81
2022/05/03 02:58:05;;;;;;;25.80;20.30;;;8.20;84.80;;;;;;5114629;28;20379;-82
2022/05/03 03:03:59;;;;;;;24.70;20.73;;;8.20;84.50;;;;;;5114521;28;20474;-82
2022/05/03 03:06:33;;;;;;;21.55;17.27;;;8.30;85.00;;;;;;5114189;28;20050;-82
2022/05/03 03:09:00;;;;;;;25.83;19.60;;;8.30;84.70;;;;;;5114251;28;20039;-83
2022/05/03 03:12:02;;;;;;;24.10;19.05;;;8.30;84.60;;;;;;5096881;28;20040;-83
2022/05/03 03:14:46;;;;;;;23.05;19.55;;;8.40;84.60;;;;;;5114038;28;20122;-82
2022/05/03 03:17:20;;;;;;;24.45;19.38;;;8.40;84.50;;;;;;5114049;28;20031;-81
2022/05/03 03:20:09;;;;;;;25.30;19.90;;;8.50;84.30;;;;;;5114150;28;20072;-81
2022/05/03 03:22:45;;;;;;;27.48;21.95;;;8.50;84.50;;;;;;5113890;28;20475;-80
2022/05/03 03:25:21;;;;;;;26.48;20.67;;;8.50;84.50;;;;;;5097267;28;20520;-79
2022/05/03 03:27:50;;;;;;;29.58;20.80;;;8.50;84.60;;;;;;5114046;28;20039;-83
2022/05/03 03:30:17;;;;;;;24.90;19.20;;;8.50;84.70;;;;;;5113613;28;20048;-82
2022/05/03 03:32:48;;;;;;;28.48;19.83;;;8.50;84.50;;;;;;5113718;28;20046;-79
2022/05/03 03:35:15;;;;;;;27.52;20.75;;;8.60;84.60;;;;;;5096502;28;20121;-80
2022/05/03 03:37:49;;;;;;;25.33;21.40;;;8.60;84.80;;;;;;5096587;28;20036;-79
2022/05/03 03:40:16;;;;;;;30.52;22.08;;;8.50;84.90;;;;;;5113756;28;20430;-81
2022/05/03 03:42:44;;;;;;;28.40;21.42;;;8.50;84.90;;;;;;5112649;28;20503;-83
2022/05/03 03:45:11;;;;;;;24.80;19.27;;;8.50;85.40;;;;;;5096723;28;20392;-81
2022/05/03 03:47:40;;;;;;;24.88;19.33;;;8.50;85.30;;;;;;5113323;28;20126;-80
2022/05/03 03:50:07;;;;;;;29.00;21.42;;;8.50;85.20;;;;;;5113203;28;20046;-80
2022/05/03 03:52:44;;;;;;;29.02;22.98;;;8.60;85.40;;;;;;5096595;28;20498;-83
2022/05/03 03:55:12;;;;;;;27.92;20.88;;;8.50;85.30;;;;;;5096546;28;20035;-81
2022/05/03 03:57:38;;;;;;;24.77;20.25;;;8.60;85.40;;;;;;5113198;28;20039;-83
2022/05/03 04:00:07;;;;;;;22.83;19.15;;;8.60;85.70;;;;;;5096222;28;20043;-83
2022/05/03 04:02:34;;;;;;;22.95;19.10;;;8.60;85.80;;;;;;5113256;28;20040;-80
2022/05/03 04:05:01;;;;;;;27.95;21.63;;;8.60;85.60;;;;;;5079663;28;20407;-80
2022/05/03 04:07:27;;;;;;;27.80;22.48;;;8.60;85.60;;;;;;5112819;28;20043;-79
2022/05/03 04:09:52;;;;;;;27.70;22.38;;;8.60;85.60;;;;;;5112895;28;20043;-79
2022/05/03 04:12:22;;;;;;;26.65;21.27;;;8.70;85.80;;;;;;5095631;28;20075;-82
2022/05/03 04:14:48;;;;;;;28.92;21.70;;;8.70;85.60;;;;;;5095457;28;20118;-82
2022/05/03 04:17:14;;;;;;;27.30;21.20;;;8.80;85.70;;;;;;5095538;28;20506;-82
2022/05/03 04:19:40;;;;;;;28.23;21.45;;;8.80;85.60;;;;;;5095718;28;20039;-82
2022/05/03 04:22:26;;;;;;;28.45;21.35;;;8.80;85.70;;;;;;5112729;28;20039;-80
2022/05/03 04:24:52;;;;;;;33.30;22.48;;;8.90;85.60;;;;;;5095761;28;20046;-79
2022/05/03 04:27:19;;;;;;;28.25;22.38;;;8.90;85.60;;;;;;5112558;28;20039;-80
2022/05/03 04:29:45;;;;;;;32.15;24.98;;;8.90;85.70;;;;;;5112411;28;20040;-81
2022/05/03 04:32:11;;;;;;;30.98;23.10;;;8.90;85.70;;;;;;5112774;28;20116;-83
2022/05/03 04:34:36;;;;;;;34.78;25.60;;;9.00;85.70;;;;;;5112337;28;20496;-82
2022/05/03 04:37:02;;;;;;;33.50;26.50;;;9.00;85.80;;;;;;5095462;28;20199;-79
2022/05/03 04:39:28;;;;;;;33.97;25.38;;;9.00;86.20;;;;;;5112548;28;20080;-82
2022/05/03 04:41:54;;;;;;;36.60;27.02;;;9.00;86.60;;;;;;5078775;28;20039;-79
2022/05/03 04:44:19;;;;;;;35.38;26.40;;;9.10;86.50;;;;;;5095681;28;20071;-81
2022/05/03 04:46:45;;;;;;;35.92;26.27;;;9.10;86.60;;;;;;5095378;28;20503;-82
2022/05/03 04:49:11;;;;;;;32.60;25.77;;;9.10;86.50;;;;;;5095786;28;20130;-79
2022/05/03 04:51:36;;;;;;;30.77;24.17;;;9.20;86.70;;;;;;5112164;28;20496;-82
2022/05/03 04:54:02;;;;;;;31.58;24.05;;;9.20;86.60;;;;;;5095151;28;20039;-78
2022/05/03 04:56:28;;;;;;;32.00;25.15;;;9.20;86.80;;;;;;5095273;28;20032;-78
2022/05/03 04:58:55;;;;;;;35.97;25.83;;;9.30;86.80;;;;;;5112167;28;20083;-84
2022/05/03 05:01:21;;;;;;;33.92;25.73;;;9.30;86.50;;;;;;5112115;28;20039;-81
2022/05/03 05:03:47;;;;;;;31.17;23.75;;;9.30;86.40;;;;;;5112168;28;20040;-78
2022/05/03 05:06:21;;;;;;;27.38;23.02;;;9.40;86.20;;;;;;5095351;28;20046;-81
2022/05/03 05:08:47;;;;;;;32.67;25.90;;;9.40;86.40;;;;;;5095532;28;20050;-82
2022/05/03 05:11:13;;;;;;;33.90;24.90;;;9.50;86.30;;;;;;5112021;28;20046;-81
2022/05/03 05:13:39;;;;;;;30.25;24.08;;;9.50;86.20;;;;;;5095472;28;20040;-80
2022/05/03 05:16:08;;;;;;;31.98;24.15;;;9.50;86.40;;;;;;5112145;28;20115;-78
2022/05/03 05:18:34;;;;;;;29.98;23.33;;;9.50;86.30;;;;;;5095528;28;20039;-81
2022/05/03 05:20:59;;;;;;;29.80;23.55;;;9.50;86.40;;;;;;5111976;28;20040;-84
2022/05/03 05:23:25;;;;;;;32.38;23.48;;;9.50;86.40;;;;;;5111939;28;20135;-79
2022/05/03 05:25:52;;;;;;;32.38;24.63;;;9.50;86.60;;;;;;5111954;28;20126;-77
2022/05/03 05:28:19;;;;;;;33.65;25.38;;;9.50;86.40;;;;;;5094971;28;20040;-84
2022/05/03 05:30:46;;;;;;;36.05;26.63;;;9.50;86.60;;;;;;5094946;28;20040;-82
2022/05/03 05:33:11;;;;;;;33.55;25.55;;;9.50;86.80;;;;;;5113941;27;20032;-81
2022/05/03 05:35:40;;;;;;;35.20;27.08;;;9.60;86.90;;;;;;5115251;28;20100;-85
2022/05/03 05:38:05;;;;;;;35.05;25.58;;;9.50;87.10;;;;;;5098276;28;20042;-80
2022/05/03 05:40:31;;;;;;;33.13;25.30;;;9.60;87.10;;;;;;5098168;28;20039;-82
2022/05/03 05:43:00;;;;;;;42.47;30.02;;;9.50;87.30;;;;;;5098313;28;20460;-81
2022/05/03 05:45:25;;;;;;;45.35;30.80;;;9.60;87.50;;;;;;5115131;28;20117;-81
2022/05/03 05:47:51;;;;;;;40.35;25.38;;;9.60;87.80;;;;;;5115076;28;20193;-81
2022/05/03 05:50:17;;;;;;;43.08;28.85;;;9.60;87.50;;;;;;5097989;28;20035;-78
2022/05/03 05:55:27;;;;;;;43.50;28.23;;;9.70;87.60;;;;;;5115105;28;20050;-78
2022/05/03 05:57:53;;;;;;;32.45;19.92;;;9.80;87.70;;;;;;5098124;28;20035;-79
2022/05/03 06:00:19;;;;;;;29.52;20.13;;;9.80;87.70;;;;;;5098070;28;20047;-81
2022/05/03 06:02:45;;;;;;;25.88;16.70;;;9.80;87.70;;;;;;5115269;28;20035;-78
2022/05/03 06:05:11;;;;;;;29.77;19.20;;;9.90;87.80;;;;;;5098045;27;20043;-81
2022/05/03 06:07:37;;;;;;;22.75;15.38;;;10.00;87.70;;;;;;5117960;27;20045;-83
2022/05/03 06:10:04;;;;;;;19.85;15.02;;;10.00;87.60;;;;;;5118843;27;20035;-82
2022/05/03 06:12:29;;;;;;;17.58;8.93;;;10.00;87.60;;;;;;5118928;27;20043;-81
2022/05/03 06:14:55;;;;;;;16.35;8.77;;;10.10;87.40;;;;;;5101725;27;20118;-82
2022/05/03 06:17:21;;;;;;;10.95;6.47;;;10.10;87.20;;;;;;5118733;27;20154;-84
2022/05/03 06:19:46;;;;;;;11.85;6.97;;;10.10;87.30;;;;;;5118750;27;20443;-82
2022/05/03 06:22:13;;;;;;;14.85;7.80;;;10.10;87.20;;;;;;5101512;27;20368;-83
2022/05/03 06:24:39;;;;;;;15.23;6.80;;;10.10;87.20;;;;;;5101645;27;20039;-80
2022/05/03 06:27:06;;;;;;;12.05;5.72;;;10.10;87.40;;;;;;5118465;27;20031;-78
2022/05/03 06:29:35;;;;;;;11.10;5.03;;;10.00;87.50;;;;;;5101405;27;20337;-83
2022/05/03 06:32:00;;;;;;;15.82;6.28;;;10.00;87.70;;;;;;5084906;27;20075;-79
2022/05/03 06:34:27;;;;;;;10.20;5.40;;;10.00;87.70;;;;;;5118146;27;20135;-82
2022/05/03 06:36:52;;;;;;;10.40;4.72;;;10.00;87.80;;;;;;5118129;27;20039;-78
2022/05/03 06:39:18;;;;;;;12.05;5.25;;;10.00;87.80;;;;;;5101118;27;20041;-80
2022/05/03 06:41:44;;;;;;;11.13;4.97;;;10.00;87.90;;;;;;5101133;27;20062;-80
2022/05/03 06:44:09;;;;;;;12.95;5.03;;;10.00;87.80;;;;;;5118240;27;20058;-81
2022/05/03 06:46:35;;;;;;;17.00;5.75;;;9.90;87.70;;;;;;5118022;27;20487;-82
2022/05/03 06:49:01;;;;;;;15.55;6.07;;;9.90;87.70;;;;;;5118116;27;20084;-78
2022/05/03 06:51:26;;;;;;;17.90;6.28;;;9.90;87.80;;;;;;5117922;27;20078;-84
2022/05/03 06:53:52;;;;;;;17.70;7.43;;;9.90;88.00;;;;;;5117880;27;20475;-78
2022/05/03 06:56:18;;;;;;;15.80;6.18;;;10.00;88.10;;;;;;5117830;27;20035;-78
2022/05/03 06:58:45;;;;;;;15.93;5.75;;;10.00;88.30;;;;;;5117756;27;20038;-83
2022/05/03 07:01:15;;;;;;;17.70;6.45;;;10.00;88.50;;;;;;5117806;27;20043;-77
2022/05/03 07:03:42;;;;;;;19.05;6.10;;;10.00;88.20;;;;;;5100734;27;20091;-81
2022/05/03 07:06:08;;;;;;;17.38;6.10;;;10.00;88.10;;;;;;5117788;27;20269;-78
2022/05/03 07:08:35;;;;;;;16.50;6.20;;;10.00;88.00;;;;;;5117889;27;20509;-80
2022/05/03 07:11:01;;;;;;;12.63;5.47;;;10.00;87.80;;;;;;5117666;27;20035;-79
2022/05/03 07:13:28;;;;;;;14.02;5.35;;;10.00;87.80;;;;;;5100815;27;20391;-80
2022/05/03 07:15:55;;;;;;;20.10;6.82;;;10.10;87.60;;;;;;5084027;27;20080;-81
2022/05/03 07:23:51;;;;;;;16.63;5.78;;;10.00;87.40;;;;;;5117314;27;20106;-81
2022/05/03 07:26:18;;;;;;;18.88;5.10;;;10.10;87.20;;;;;;5100536;27;20031;-79
2022/05/03 07:28:48;;;;;;;15.80;5.63;;;10.10;87.00;;;;;;5100251;27;20617;-79
2022/05/03 07:31:20;;;;;;;18.63;4.32;;;10.20;86.80;;;;;;5117008;27;20078;-81
2022/05/03 07:33:47;;;;;;;13.27;5.45;;;10.10;86.50;;;;;;5116798;27;20253;-80
2022/05/03 07:36:13;;;;;;;19.40;5.15;;;10.20;86.10;;;;;;5083281;27;20039;-81
2022/05/03 07:38:42;;;;;;;16.70;4.40;;;10.20;85.60;;;;;;5117365;27;20043;-79
2022/05/03 07:41:08;;;;;;;18.05;5.55;;;10.30;85.20;;;;;;5116850;27;20046;-81
2022/05/03 07:43:35;;;;;;;15.75;4.72;;;10.30;85.00;;;;;;5099922;27;20043;-80
2022/05/03 07:46:01;;;;;;;10.98;3.92;;;10.40;84.60;;;;;;5100024;27;20095;-82
2022/05/03 07:48:27;;;;;;;14.35;4.03;;;10.40;84.40;;;;;;5099701;27;20039;-81
2022/05/03 07:50:53;;;;;;;13.10;4.45;;;10.40;83.90;;;;;;5116616;27;20047;-80
2022/05/03 07:53:19;;;;;;;19.75;4.85;;;10.50;83.30;;;;;;5117033;27;20035;-78
2022/05/03 07:55:47;;;;;;;13.13;4.28;;;10.50;83.30;;;;;;5116723;27;20035;-81
2022/05/03 07:58:13;;;;;;;15.10;5.25;;;10.50;83.30;;;;;;5116643;27;20114;-80
2022/05/03 08:00:40;;;;;;;18.60;4.13;;;10.50;83.30;;;;;;5100009;27;20107;-77
2022/05/03 08:03:05;;;;;;;13.82;4.22;;;10.60;82.20;;;;;;5116716;27;20039;-79
2022/05/03 08:05:31;;;;;;;15.52;4.65;;;10.60;82.00;;;;;;5116534;27;20122;-81
2022/05/03 08:07:57;;;;;;;9.98;4.45;;;10.70;81.80;;;;;;5116442;27;20091;-79
2022/05/03 08:10:23;;;;;;;12.85;4.78;;;10.70;81.50;;;;;;5116186;27;20109;-78
2022/05/03 08:12:51;;;;;;;14.68;4.13;;;10.70;81.10;;;;;;5082409;27;20046;-79
2022/05/03 08:15:21;;;;;;;12.68;4.85;;;10.80;80.80;;;;;;5099254;27;20042;-80
2022/05/03 08:17:47;;;;;;;14.68;4.28;;;10.90;80.60;;;;;;5116160;27;20043;-78
2022/05/03 08:20:14;;;;;;;12.65;3.75;;;11.00;80.10;;;;;;5116216;27;20047;-79
2022/05/03 08:22:41;;;;;;;18.85;4.30;;;11.00;80.00;;;;;;5099735;27;20057;-79
2022/05/03 08:25:07;;;;;;;13.82;4.90;;;11.00;79.70;;;;;;5116093;27;20042;-81
2022/05/03 08:27:36;;;;;;;16.33;3.60;;;11.10;79.20;;;;;;5099404;27;20429;-79
2022/05/03 08:30:03;;;;;;;9.95;4.53;;;11.20;79.50;;;;;;5115735;27;20035;-78
2022/05/03 08:32:28;;;;;;;15.93;4.28;;;11.30;79.20;;;;;;5099047;27;20039;-80
2022/05/03 08:34:54;;;;;;;12.93;4.05;;;11.30;79.10;;;;;;5115836;27;20051;-80
2022/05/03 08:42:49;;;;;;;9.55;3.58;;;11.40;78.10;;;;;;5101505;27;20002;-78
2022/05/03 08:45:14;;;;;;;11.35;4.32;;;11.40;77.50;;;;;;5115782;27;20121;-80
2022/05/03 08:47:41;;;;;;;13.45;4.03;;;11.40;77.20;;;;;;5115713;27;20050;-80
2022/05/03 08:50:08;;;;;;;11.07;4.18;;;11.50;77.10;;;;;;5115606;27;20051;-80
2022/05/03 08:52:46;;;;;;;11.38;3.97;;;11.50;76.80;;;;;;5115710;27;20046;-81
2022/05/03 08:55:12;;;;;;;12.02;4.32;;;11.50;76.50;;;;;;5115704;27;20070;-77
2022/05/03 08:57:40;;;;;;;11.50;3.50;;;11.50;76.10;;;;;;5115975;27;20035;-80
2022/05/03 09:00:06;;;;;;;13.70;3.53;;;11.50;75.80;;;;;;5115563;27;20558;-79
2022/05/03 09:02:35;;;;;;;7.70;3.55;;;11.50;74.30;;;;;;5115554;27;20039;-79
2022/05/03 09:05:02;;;;;;;13.85;3.00;;;11.50;74.20;;;;;;5099347;28;20061;-80
2022/05/03 09:07:28;;;;;;;11.27;3.00;;;11.50;74.30;;;;;;5098929;28;20043;-80
2022/05/03 09:09:54;;;;;;;15.05;3.85;;;11.60;74.20;;;;;;5081922;28;20473;-78
2022/05/03 09:12:28;;;;;;;10.15;3.35;;;11.70;73.80;;;;;;5098908;28;20197;-81
2022/05/03 09:14:59;;;;;;;12.73;3.95;;;11.70;73.40;;;;;;5115749;28;20031;-79
2022/05/03 09:17:39;;;;;;;10.30;3.53;;;11.70;73.00;;;;;;5115458;28;20043;-78
2022/05/03 09:26:23;;;;;;;12.55;3.50;;;11.90;73.20;;;;;;5101067;28;20524;-77
2022/05/03 09:28:50;;;;;;;6.75;3.30;;;12.00;73.20;;;;;;5115508;28;20043;-78
2022/05/03 09:31:41;;;;;;;11.10;3.28;;;12.00;71.90;;;;;;5115193;28;20050;-82
2022/05/03 09:34:27;;;;;;;13.68;3.13;;;12.00;71.60;;;;;;5115381;28;20051;-79
2022/05/03 09:36:55;;;;;;;13.50;3.95;;;12.00;71.90;;;;;;5098679;28;20104;-84
2022/05/03 09:39:27;;;;;;;13.15;3.08;;;12.00;72.40;;;;;;5098419;27;20477;-82
2022/05/03 09:42:09;;;;;;;7.22;3.13;;;12.00;72.40;;;;;;5117182;27;20039;-81
2022/05/03 09:44:50;;;;;;;9.60;3.05;;;12.10;71.50;;;;;;5119377;27;20175;-80
2022/05/03 09:47:17;;;;;;;9.00;2.70;;;12.10;69.60;;;;;;5119513;27;20511;-82
2022/05/03 09:49:43;;;;;;;10.93;3.00;;;12.10;69.50;;;;;;5102150;27;20522;-80
2022/05/03 09:52:27;;;;;;;11.38;3.17;;;12.10;69.70;;;;;;5102051;27;20043;-81
2022/05/03 09:54:55;;;;;;;10.00;3.97;;;12.20;70.00;;;;;;5119368;27;20403;-80
2022/05/03 09:57:23;;;;;;;16.75;3.45;;;12.20;70.60;;;;;;5085478;27;20035;-78
2022/05/03 09:59:54;;;;;;;8.32;2.63;;;12.30;70.10;;;;;;5119061;27;20053;-80
2022/05/03 10:02:27;;;;;;;10.90;2.90;;;12.20;69.60;;;;;;5118961;27;20041;-80
2022/05/03 10:04:58;;;;;;;11.43;2.40;;;12.20;68.10;;;;;;5101775;27;20043;-80
2022/05/03 10:07:28;;;;;;;8.52;2.60;;;12.10;67.90;;;;;;5101732;27;20048;-79
2022/05/03 10:09:54;;;;;;;9.43;2.55;;;12.10;68.20;;;;;;5118574;27;20031;-78
2022/05/03 10:12:20;;;;;;;7.00;2.70;;;12.20;68.60;;;;;;5118720;27;20039;-78
2022/05/03 10:14:47;;;;;;;9.90;2.97;;;12.20;67.90;;;;;;5101879;27;20360;-78
2022/05/03 10:23:01;;;;;;;9.18;2.80;;;12.40;66.80;;;;;;5118556;27;20083;-78
2022/05/03 10:25:47;;;;;;;14.35;3.58;;;12.50;67.40;;;;;;5084135;27;20047;-79
2022/05/03 10:28:13;;;;;;;6.20;2.45;;;12.60;67.30;;;;;;5101449;27;20144;-83
2022/05/03 10:30:59;;;;;;;19.30;3.05;;;12.70;65.80;;;;;;5118489;27;20035;-80
2022/05/03 10:33:25;;;;;;;5.30;2.20;;;12.70;65.20;;;;;;5101459;27;20039;-82
2022/05/03 10:35:51;;;;;;;12.25;3.15;;;12.80;65.70;;;;;;5117932;27;20514;-78
2022/05/03 10:38:34;;;;;;;11.40;3.35;;;12.90;66.40;;;;;;5118120;27;20293;-84
2022/05/03 10:41:01;;;;;;;10.52;3.20;;;13.00;65.90;;;;;;5101161;27;20095;-81
2022/05/03 10:43:29;;;;;;;10.57;2.50;;;13.10;64.80;;;;;;5084450;27;20138;-84
2022/05/03 10:46:08;;;;;;;9.60;2.30;;;13.30;64.40;;;;;;5101109;27;20045;-81
2022/05/03 10:48:36;;;;;;;8.88;2.67;;;13.50;63.90;;;;;;5118349;27;20179;-79
2022/05/03 10:51:04;;;;;;;7.63;2.78;;;13.60;63.20;;;;;;5101251;27;20100;-82
2022/05/03 10:53:32;;;;;;;5.72;2.47;;;13.50;62.10;;;;;;5100719;27;20035;-78
2022/05/03 10:56:18;;;;;;;7.03;2.40;;;13.60;62.00;;;;;;5100904;27;20134;-82
2022/05/03 10:59:02;;;;;;;6.53;2.65;;;13.60;61.50;;;;;;5118245;27;20176;-79
2022/05/03 11:01:28;;;;;;;6.65;2.80;;;13.70;60.50;;;;;;5118105;27;20398;-78
2022/05/03 11:04:02;;;;;;;6.15;2.45;;;13.70;60.00;;;;;;5083819;27;20042;-80
2022/05/03 11:06:28;;;;;;;;;;;13.70;60.60;;;;;;5118153;27;20073;-82
2022/05/03 11:09:09;;;;;;;6.00;2.30;;;13.80;60.50;;;;;;5101016;27;19972;-81
2022/05/03 11:11:39;;;;;;;6.65;2.20;;;14.00;60.40;;;;;;5117422;27;20051;-80
2022/05/03 11:14:25;;;;;;;10.32;2.30;;;14.10;60.10;;;;;;5099593;27;20076;-82
2022/05/03 11:17:10;;;;;;;6.97;2.20;;;14.30;59.10;;;;;;5117728;27;20035;-80
2022/05/03 11:19:49;;;;;;;7.05;1.88;;;14.30;59.10;;;;;;5116624;27;20058;-82
2022/05/03 11:22:35;;;;;;;7.20;2.10;;;14.30;58.70;;;;;;5117518;27;20039;-81
2022/05/03 11:25:12;;;;;;;7.60;2.15;;;14.50;58.80;;;;;;5100329;27;20041;-82
2022/05/03 11:27:52;;;;;;;7.15;1.92;;;14.40;58.30;;;;;;5117269;27;20088;-82
2022/05/03 11:30:21;;;;;;;5.75;1.90;;;14.30;58.00;;;;;;5117065;27;20047;-78
2022/05/03 11:32:47;;;;;;;10.68;2.17;;;14.10;58.00;;;;;;5100146;27;20039;-81
2022/05/03 11:35:12;;;;;;;9.38;2.90;;;14.20;58.70;;;;;;5083079;27;20051;-82
2022/05/03 11:37:55;;;;;;;6.88;2.00;;;14.10;58.90;;;;;;5117070;27;20039;-81
2022/05/03 11:40:23;;;;;;;6.45;1.90;;;14.10;58.10;;;;;;5099997;27;20039;-81
2022/05/03 11:42:49;;;;;;;7.35;1.73;;;14.10;58.80;;;;;;5116898;27;20043;-83
2022/05/03 11:45:16;;;;;;;4.03;1.88;;;14.10;58.90;;;;;;5116893;27;20039;-78
2022/05/03 11:47:49;;;;;;;7.78;2.03;;;14.10;58.80;;;;;;5083040;27;20125;-81
2022/05/03 11:56:00;;;;;;;7.22;2.78;;;14.10;59.40;;;;;;5116989;27;20462;-82
2022/05/03 11:58:28;;;;;;;5.90;1.80;;;14.10;59.50;;;;;;5116591;27;20066;-82
2022/05/03 12:00:54;;;;;;;4.47;1.73;;;14.10;58.50;;;;;;5116474;27;20043;-80
2022/05/03 12:03:19;;;;;;;6.82;2.15;;;14.10;58.60;;;;;;5099695;27;20095;-80
2022/05/03 12:05:56;;;;;;;4.65;1.60;;;14.20;58.80;;;;;;5099166;27;20460;-81
2022/05/03 12:08:23;;;;;;;7.47;2.15;;;14.40;58.60;;;;;;5099501;27;20041;-81
2022/05/03 12:10:50;;;;;;;8.57;2.00;;;14.50;58.30;;;;;;5116238;27;20043;-80
2022/05/03 12:13:37;;;;;;;6.22;1.80;;;14.50;57.70;;;;;;5116368;27;20049;-84
2022/05/03 12:16:07;;;;;;;7.60;2.00;;;14.50;57.60;;;;;;5099661;27;20526;-79
2022/05/03 12:18:38;;;;;;;5.85;2.35;;;14.60;57.70;;;;;;5116483;27;20050;-84
2022/05/03 12:21:14;;;;;;;5.68;2.33;;;14.70;57.40;;;;;;5099050;27;20111;-81
2022/05/03 12:23:51;;;;;;;7.60;2.45;;;14.80;57.10;;;;;;5099188;27;20050;-77
2022/05/03 12:26:17;;;;;;;5.75;2.00;;;14.80;56.90;;;;;;5116404;27;20035;-81
2022/05/03 12:28:47;;;;;;;5.38;1.80;;;14.70;57.30;;;;;;5115990;27;20043;-80
2022/05/03 12:31:16;;;;;;;6.05;2.00;;;14.70;56.60;;;;;;5099033;27;20125;-81
2022/05/03 12:33:50;;;;;;;8.30;2.17;;;14.70;57.00;;;;;;5099337;27;20035;-80
2022/05/03 12:36:35;;;;;;;8.60;2.00;;;14.70;56.60;;;;;;5099052;27;20043;-79
2022/05/03 12:39:19;;;;;;;5.28;2.78;;;14.80;56.30;;;;;;5098956;27;20041;-82
2022/05/03 12:41:55;;;;;;;8.13;2.20;;;14.90;56.30;;;;;;5099266;28;20039;-80
2022/05/03 12:44:22;;;;;;;8.85;2.40;;;15.00;55.70;;;;;;5115883;27;20043;-81
2022/05/03 12:46:50;;;;;;;2.50;1.65;;;15.20;54.80;;;;;;5082343;27;20092;-78
2022/05/03 12:49:16;;;;;;;7.05;2.20;;;15.20;54.40;;;;;;5082433;27;20031;-82
2022/05/03 12:51:44;;;;;;;4.78;1.52;;;15.10;55.00;;;;;;5115735;27;20042;-79
2022/05/03 12:54:10;;;;;;;4.03;1.80;;;15.00;55.20;;;;;;5115692;27;20035;-79
2022/05/03 12:59:21;;;;;;;7.88;2.10;;;14.90;53.60;;;;;;5115541;27;20100;-80
2022/05/03 13:01:50;;;;;;;5.18;2.13;;;15.00;54.10;;;;;;5115679;27;20089;-82
2022/05/03 13:04:17;;;;;;;5.57;2.10;;;15.20;54.00;;;;;;5098576;27;20189;-81
2022/05/03 13:06:43;;;;;;;9.75;2.97;;;15.50;53.70;;;;;;5098636;28;20545;-81
2022/05/03 13:09:09;;;;;;;9.40;2.47;;;15.50;52.90;;;;;;5115549;28;20122;-79
2022/05/03 13:11:35;;;;;;;4.68;1.85;;;15.50;53.70;;;;;;5115438;28;20039;-80
2022/05/03 13:14:01;;;;;;;5.70;1.90;;;15.50;53.40;;;;;;5098695;28;20035;-79
2022/05/03 13:16:27;;;;;;;9.65;3.13;;;15.40;53.50;;;;;;5118735;27;20038;-83
2022/05/03 13:18:53;;;;;;;5.30;2.00;;;15.40;53.10;;;;;;5119642;27;20046;-83
2022/05/03 13:21:19;;;;;;;6.93;3.22;;;15.40;53.20;;;;;;5085940;27;20043;-82
2022/05/03 13:23:44;;;;;;;6.07;1.98;;;15.30;52.90;;;;;;5119640;27;20122;-85
2022/05/03 13:26:10;;;;;;;7.97;2.45;;;15.10;53.00;;;;;;5102649;27;20402;-78
2022/05/03 13:28:36;;;;;;;7.75;2.10;;;15.00;53.70;;;;;;5119716;27;20075;-79
2022/05/03 13:31:02;;;;;;;5.35;2.00;;;15.00;52.90;;;;;;5102544;27;20046;-82
2022/05/03 13:33:28;;;;;;;4.88;1.80;;;14.80;53.20;;;;;;5102407;27;20041;-81
2022/05/03 13:41:21;;;;;;;6.07;1.90;;;14.50;53.80;;;;;;5105188;27;20399;-80
2022/05/03 13:43:48;;;;;;;6.90;2.20;;;14.60;53.90;;;;;;5085531;27;20035;-82
2022/05/03 13:46:14;;;;;;;5.00;2.08;;;14.60;54.40;;;;;;5085660;27;20195;-82
2022/05/03 13:48:40;;;;;;;7.88;2.05;;;14.60;53.10;;;;;;5102272;27;20043;-79
2022/05/03 13:51:06;;;;;;;8.93;2.70;;;14.50;53.40;;;;;;5119057;27;20043;-83